Big Bear Station Historical Data
Daily Summary for June 27, 2017 Units:  English    Metric   Both
« Previous Day
Next Day »
Daily Weekly Monthly Yearly Custom
  High: Low: Average:
Temperature: 82.8 °F 54.1 °F 66.9 °F
Dew Point: 31.0 °F 4.3 °F 23.9 °F
Humidity: 33 % 10 % 21 %
Wind Speed: 10.9 mph 0.0 mph 3 mph
Wind Gust: -999.0 mph - -
Wind:- - WSW
Pressure: 30.25 in 30.18 in -
Precipitation: 0.00 in    
Historical Graphs
 
 
Tabular Data for June 27, 2017
Time Temperature Dew Point Pressure Wind Wind Speed Wind Gust Humidity Rainfall Rate (Hourly)
00:00 59.5 °F 24.6 °F 30.25 in West 2.7 mph -999.0 mph 26 % 0 in
00:16 59.4 °F 26.3 °F 30.25 in North 4.2 mph -999.0 mph 28 % 0 in
00:31 58.8 °F 24.9 °F 30.25 in South 1.7 mph -999.0 mph 27 % 0 in
00:46 58.8 °F 24.0 °F 30.24 in ENE 1.7 mph -999.0 mph 26 % 0 in
01:01 58.6 °F 24.7 °F 30.24 in Calm   -999.0 mph 27 % 0 in
01:17 57.9 °F 24.1 °F 30.24 in ESE 1.7 mph -999.0 mph 27 % 0 in
01:32 57.7 °F 25.6 °F 30.24 in SSW 1.7 mph -999.0 mph 29 % 0 in
01:47 57.2 °F 25.2 °F 30.24 in South 2.2 mph -999.0 mph 29 % 0 in
02:02 56.1 °F 24.3 °F 30.23 in SSE 1.1 mph -999.0 mph 29 % 0 in
02:18 55.2 °F 23.5 °F 30.23 in SSW 1.7 mph -999.0 mph 29 % 0 in
02:33 55.8 °F 23.2 °F 30.22 in WNW 2.7 mph -999.0 mph 28 % 0 in
02:48 57.2 °F 24.4 °F 30.22 in WSW 1.7 mph -999.0 mph 28 % 0 in
03:03 57.2 °F 23.5 °F 30.22 in South 1.7 mph -999.0 mph 27 % 0 in
03:18 56.8 °F 23.2 °F 30.22 in Calm   -999.0 mph 27 % 0 in
03:34 56.1 °F 27.4 °F 30.22 in Calm   -999.0 mph 33 % 0 in
03:49 55.6 °F 25.4 °F 30.22 in Calm   -999.0 mph 31 % 0 in
04:05 55.2 °F 25.8 °F 30.22 in South 1.7 mph -999.0 mph 32 % 0 in
04:20 56.1 °F 24.3 °F 30.22 in SSW 2.7 mph -999.0 mph 29 % 0 in
04:35 56.1 °F 24.3 °F 30.22 in Calm   -999.0 mph 29 % 0 in
04:50 55.9 °F 24.1 °F 30.22 in Calm   -999.0 mph 29 % 0 in
05:06 55.8 °F 23.2 °F 30.22 in Calm   -999.0 mph 28 % 0 in
05:21 56.1 °F 23.4 °F 30.22 in Calm   -999.0 mph 28 % 0 in
05:36 55.9 °F 23.2 °F 30.22 in Calm   -999.0 mph 28 % 0 in
05:51 56.7 °F 22.2 °F 30.22 in Calm   -999.0 mph 26 % 0 in
06:06 56.1 °F 23.4 °F 30.22 in Calm   -999.0 mph 28 % 0 in
06:22 56.3 °F 24.4 °F 30.23 in Calm   -999.0 mph 29 % 0 in
06:37 56.1 °F 25.1 °F 30.23 in Calm   -999.0 mph 30 % 0 in
06:52 57.0 °F 25.0 °F 30.23 in NW 2.2 mph -999.0 mph 29 % 0 in
07:07 58.1 °F 26.0 °F 30.23 in Calm   -999.0 mph 29 % 0 in
07:22 59.7 °F 25.6 °F 30.23 in Calm   -999.0 mph 27 % 0 in
07:38 61.2 °F 27.8 °F 30.23 in Calm   -999.0 mph 28 % 0 in
07:53 61.9 °F 29.3 °F 30.23 in WNW 2.2 mph -999.0 mph 29 % 0 in
08:08 64.2 °F 28.6 °F 30.24 in NW 4.2 mph -999.0 mph 26 % 0 in
08:23 65.3 °F 27.6 °F 30.24 in NW 3.7 mph -999.0 mph 24 % 0 in
08:38 66.4 °F 26.4 °F 30.24 in NW 8.3 mph -999.0 mph 22 % 0 in
08:54 67.1 °F 24.7 °F 30.24 in NNW 5.8 mph -999.0 mph 20 % 0 in
09:09 68.0 °F 27.7 °F 30.24 in NNW 7.8 mph -999.0 mph 22 % 0 in
09:24 68.7 °F 26.0 °F 30.24 in WNW 6.3 mph -999.0 mph 20 % 0 in
09:40 69.8 °F 26.9 °F 30.24 in WNW 5.3 mph -999.0 mph 20 % 0 in
09:55 70.9 °F 25.3 °F 30.24 in West 2.7 mph -999.0 mph 18 % 0 in
10:10 72.0 °F 28.7 °F 30.24 in North 2.2 mph -999.0 mph 20 % 0 in
10:26 72.9 °F 30.7 °F 30.25 in NW 5.8 mph -999.0 mph 21 % 0 in
10:41 73.9 °F 29.0 °F 30.25 in West 3.2 mph -999.0 mph 19 % 0 in
10:56 74.1 °F 27.9 °F 30.25 in NNW 3.7 mph -999.0 mph 18 % 0 in
11:11 75.0 °F 25.8 °F 30.25 in NNW 5.3 mph -999.0 mph 16 % 0 in
11:27 76.5 °F 28.4 °F 30.25 in ESE 2.7 mph -999.0 mph 17 % 0 in
11:42 77.0 °F 27.4 °F 30.25 in West 3.7 mph -999.0 mph 16 % 0 in
11:57 78.8 °F 25.6 °F 30.25 in NW 5.3 mph -999.0 mph 14 % 0 in
12:13 77.2 °F 20.6 °F 30.25 in SSW 3.7 mph -999.0 mph 12 % 0 in
12:28 79.5 °F 24.3 °F 30.25 in SSE 3.7 mph -999.0 mph 13 % 0 in
12:43 80.6 °F 23.3 °F 30.25 in NW 6.8 mph -999.0 mph 12 % 0 in
12:59 79.9 °F 22.7 °F 30.25 in South 6.3 mph -999.0 mph 12 % 0 in
13:14 81.0 °F 23.6 °F 30.25 in ESE 2.2 mph -999.0 mph 12 % 0 in
13:29 82.4 °F 24.7 °F 30.25 in NNW 3.2 mph -999.0 mph 12 % 0 in
13:45 82.2 °F 24.5 °F 30.24 in NW 4.7 mph -999.0 mph 12 % 0 in
14:00 81.9 °F 22.2 °F 30.24 in NNW 6.3 mph -999.0 mph 11 % 0 in
14:15 82.8 °F 26.9 °F 30.24 in WNW 4.7 mph -999.0 mph 13 % 0 in
14:30 81.9 °F 22.2 °F 30.23 in South 3.2 mph -999.0 mph 11 % 0 in
14:46 82.4 °F 20.4 °F 30.23 in SE 4.7 mph -999.0 mph 10 % 0 in
15:01 81.1 °F 23.7 °F 30.23 in ESE 4.7 mph -999.0 mph 12 % 0 in
15:17 81.1 °F 23.7 °F 30.22 in NW 6.3 mph -999.0 mph 12 % 0 in
15:32 81.3 °F 25.8 °F 30.22 in NW 7.8 mph -999.0 mph 13 % 0 in
15:47 81.1 °F 25.6 °F 30.22 in SW 2.7 mph -999.0 mph 13 % 0 in
16:02 81.1 °F 23.7 °F 30.22 in NNW 3.7 mph -999.0 mph 12 % 0 in
16:18 79.5 °F 24.3 °F 30.21 in North 6.8 mph -999.0 mph 13 % 0 in
16:33 79.3 °F 24.2 °F 30.20 in NW 10.9 mph -999.0 mph 13 % 0 in
16:48 81.5 °F 29.4 °F 30.20 in NE 4.2 mph -999.0 mph 15 % 0 in
17:03 79.7 °F 26.3 °F 30.20 in NW 7.8 mph -999.0 mph 14 % 0 in
17:19 79.0 °F 24.0 °F 30.20 in West 2.7 mph -999.0 mph 13 % 0 in
17:34 79.3 °F 24.2 °F 30.19 in West 3.7 mph -999.0 mph 13 % 0 in
17:49 77.2 °F 22.5 °F 30.19 in WNW 6.3 mph -999.0 mph 13 % 0 in
18:05 77.2 °F 26.0 °F 30.19 in NW 4.7 mph -999.0 mph 15 % 0 in
18:20 77.7 °F 26.4 °F 30.19 in North 6.3 mph -999.0 mph 15 % 0 in
18:35 76.1 °F 26.6 °F 30.18 in North 4.2 mph -999.0 mph 16 % 0 in
18:50 76.1 °F 30.8 °F 30.18 in NW 8.3 mph -999.0 mph 19 % 0 in
19:05 74.8 °F 31.0 °F 30.18 in West 1.1 mph -999.0 mph 20 % 0 in
19:21 71.6 °F 30.7 °F 30.19 in SSW 2.7 mph -999.0 mph 22 % 0 in
19:36 67.6 °F 28.5 °F 30.20 in WNW 3.2 mph -999.0 mph 23 % 0 in
20:06 64.2 °F 27.6 °F 30.19 in Calm   -999.0 mph 25 % 0 in
20:22 63.3 °F 26.9 °F 30.19 in Calm   -999.0 mph 25 % 0 in
20:37 62.1 °F 23.8 °F 30.19 in North 5.3 mph -999.0 mph 23 % 0 in
20:52 61.9 °F 23.7 °F 30.19 in WSW 2.2 mph -999.0 mph 23 % 0 in
21:07 61.2 °F 22.0 °F 30.19 in ENE 2.7 mph -999.0 mph 22 % 0 in
21:23 61.2 °F 19.8 °F 30.19 in SE 2.2 mph -999.0 mph 20 % 0 in
21:38 59.7 °F 19.7 °F 30.20 in SSE 1.7 mph -999.0 mph 21 % 0 in
21:53 58.8 °F 15.3 °F 30.20 in SSE 2.7 mph -999.0 mph 18 % 0 in
22:08 58.1 °F 14.8 °F 30.21 in Calm   -999.0 mph 18 % 0 in
22:23 57.2 °F 14.0 °F 30.20 in SSE 1.7 mph -999.0 mph 18 % 0 in
22:39 57.0 °F 12.6 °F 30.21 in Calm   -999.0 mph 17 % 0 in
22:54 56.7 °F 6.3 °F 30.21 in SSW 2.7 mph -999.0 mph 13 % 0 in
23:09 56.3 °F 4.3 °F 30.20 in Calm   -999.0 mph 12 % 0 in
23:24 55.4 °F 8.5 °F 30.20 in Calm   -999.0 mph 15 % 0 in
23:40 55.0 °F 12.2 °F 30.20 in SSE 1.1 mph -999.0 mph 18 % 0 in
23:55 54.1 °F 17.1 °F 30.20 in ESE 1.7 mph -999.0 mph 23 % 0 in
Big Bear CA Weather
Compliments of Weather Underground - 1.5 mb